sensor_id;sensor_type;location;lat;lon;timestamp;temperature;humidity
5280;DHT22;2663;53.588;10.010;2024-01-27T00:00:50;6.90;99.90
5280;DHT22;2663;53.588;10.010;2024-01-27T00:03:17;6.90;99.90
5280;DHT22;2663;53.588;10.010;2024-01-27T00:05:43;6.90;99.90
5280;DHT22;2663;53.588;10.010;2024-01-27T00:08:10;6.90;99.90
5280;DHT22;2663;53.588;10.010;2024-01-27T00:10:37;6.90;99.90
5280;DHT22;2663;53.588;10.010;2024-01-27T00:13:04;6.90;99.90
5280;DHT22;2663;53.588;10.010;2024-01-27T00:15:31;6.90;99.90
5280;DHT22;2663;53.588;10.010;2024-01-27T00:17:58;6.90;99.90
5280;DHT22;2663;53.588;10.010;2024-01-27T00:20:24;6.90;99.90
5280;DHT22;2663;53.588;10.010;2024-01-27T00:22:51;6.90;99.90
5280;DHT22;2663;53.588;10.010;2024-01-27T00:25:18;6.90;99.90
5280;DHT22;2663;53.588;10.010;2024-01-27T00:27:45;6.90;99.90
5280;DHT22;2663;53.588;10.010;2024-01-27T00:30:12;7.00;99.90
5280;DHT22;2663;53.588;10.010;2024-01-27T00:32:39;7.00;99.90
5280;DHT22;2663;53.588;10.010;2024-01-27T00:35:07;6.60;99.90
5280;DHT22;2663;53.588;10.010;2024-01-27T00:37:36;6.90;99.90
5280;DHT22;2663;53.588;10.010;2024-01-27T00:40:03;6.90;99.90
5280;DHT22;2663;53.588;10.010;2024-01-27T00:42:29;7.00;99.90
5280;DHT22;2663;53.588;10.010;2024-01-27T00:44:56;5.90;99.90
5280;DHT22;2663;53.588;10.010;2024-01-27T00:47:23;6.90;99.90
5280;DHT22;2663;53.588;10.010;2024-01-27T00:49:50;7.00;99.90
5280;DHT22;2663;53.588;10.010;2024-01-27T00:52:17;7.00;99.90
5280;DHT22;2663;53.588;10.010;2024-01-27T00:54:43;7.00;99.90
5280;DHT22;2663;53.588;10.010;2024-01-27T00:57:10;7.00;99.90
5280;DHT22;2663;53.588;10.010;2024-01-27T00:59:37;7.00;99.90
5280;DHT22;2663;53.588;10.010;2024-01-27T01:02:04;7.00;99.90
5280;DHT22;2663;53.588;10.010;2024-01-27T01:04:31;7.00;99.90
5280;DHT22;2663;53.588;10.010;2024-01-27T01:06:58;7.00;99.90
5280;DHT22;2663;53.588;10.010;2024-01-27T01:09:25;7.00;99.90
5280;DHT22;2663;53.588;10.010;2024-01-27T01:11:52;7.10;99.90
5280;DHT22;2663;53.588;10.010;2024-01-27T01:14:18;7.00;99.90
5280;DHT22;2663;53.588;10.010;2024-01-27T01:16:45;7.10;99.90
5280;DHT22;2663;53.588;10.010;2024-01-27T01:19:12;7.10;99.90
5280;DHT22;2663;53.588;10.010;2024-01-27T01:21:39;7.00;99.90
5280;DHT22;2663;53.588;10.010;2024-01-27T01:24:05;7.00;99.90
5280;DHT22;2663;53.588;10.010;2024-01-27T01:26:32;7.10;99.90
5280;DHT22;2663;53.588;10.010;2024-01-27T01:28:59;7.10;99.90
5280;DHT22;2663;53.588;10.010;2024-01-27T01:31:26;7.20;99.90
5280;DHT22;2663;53.588;10.010;2024-01-27T01:33:53;7.10;99.90
5280;DHT22;2663;53.588;10.010;2024-01-27T01:36:20;7.20;99.90
5280;DHT22;2663;53.588;10.010;2024-01-27T01:38:47;7.20;99.90
5280;DHT22;2663;53.588;10.010;2024-01-27T01:41:13;7.20;99.90
5280;DHT22;2663;53.588;10.010;2024-01-27T01:43:40;7.20;99.90
5280;DHT22;2663;53.588;10.010;2024-01-27T01:46:07;7.20;99.90
5280;DHT22;2663;53.588;10.010;2024-01-27T01:48:34;7.20;99.90
5280;DHT22;2663;53.588;10.010;2024-01-27T01:51:01;7.20;99.90
5280;DHT22;2663;53.588;10.010;2024-01-27T01:53:29;7.30;99.90
5280;DHT22;2663;53.588;10.010;2024-01-27T01:55:56;7.20;99.90
5280;DHT22;2663;53.588;10.010;2024-01-27T01:58:22;7.30;99.90
5280;DHT22;2663;53.588;10.010;2024-01-27T02:00:49;7.30;99.90
5280;DHT22;2663;53.588;10.010;2024-01-27T02:03:16;7.20;99.90
5280;DHT22;2663;53.588;10.010;2024-01-27T02:05:43;7.20;99.90
5280;DHT22;2663;53.588;10.010;2024-01-27T02:08:10;7.20;99.90
5280;DHT22;2663;53.588;10.010;2024-01-27T02:10:36;7.20;99.90
5280;DHT22;2663;53.588;10.010;2024-01-27T02:13:15;7.20;99.90
5280;DHT22;2663;53.588;10.010;2024-01-27T02:15:44;7.20;99.90
5280;DHT22;2663;53.588;10.010;2024-01-27T02:18:10;7.20;99.90
5280;DHT22;2663;53.588;10.010;2024-01-27T02:20:37;7.30;99.90
5280;DHT22;2663;53.588;10.010;2024-01-27T02:23:05;7.20;99.90
5280;DHT22;2663;53.588;10.010;2024-01-27T02:25:32;7.30;99.90
5280;DHT22;2663;53.588;10.010;2024-01-27T02:28:00;7.30;99.90
5280;DHT22;2663;53.588;10.010;2024-01-27T02:30:26;7.30;99.90
5280;DHT22;2663;53.588;10.010;2024-01-27T02:32:53;7.30;99.90
5280;DHT22;2663;53.588;10.010;2024-01-27T02:35:20;7.30;99.90
5280;DHT22;2663;53.588;10.010;2024-01-27T02:37:47;7.30;99.90
5280;DHT22;2663;53.588;10.010;2024-01-27T02:40:13;7.30;99.90
5280;DHT22;2663;53.588;10.010;2024-01-27T02:42:41;7.30;99.90
5280;DHT22;2663;53.588;10.010;2024-01-27T02:45:11;7.20;99.90
5280;DHT22;2663;53.588;10.010;2024-01-27T02:47:38;7.20;99.90
5280;DHT22;2663;53.588;10.010;2024-01-27T02:50:05;7.20;99.90
5280;DHT22;2663;53.588;10.010;2024-01-27T02:52:35;7.20;99.90
5280;DHT22;2663;53.588;10.010;2024-01-27T02:55:02;7.20;99.90
5280;DHT22;2663;53.588;10.010;2024-01-27T02:57:29;7.20;99.90
5280;DHT22;2663;53.588;10.010;2024-01-27T02:59:56;7.20;99.90
5280;DHT22;2663;53.588;10.010;2024-01-27T03:02:23;5.90;99.90
5280;DHT22;2663;53.588;10.010;2024-01-27T03:04:49;7.00;99.90
5280;DHT22;2663;53.588;10.010;2024-01-27T03:07:16;7.00;99.90
5280;DHT22;2663;53.588;10.010;2024-01-27T03:09:43;6.90;99.90
5280;DHT22;2663;53.588;10.010;2024-01-27T03:12:09;6.90;99.90
5280;DHT22;2663;53.588;10.010;2024-01-27T03:14:36;6.90;99.90
5280;DHT22;2663;53.588;10.010;2024-01-27T03:17:03;6.90;99.90
5280;DHT22;2663;53.588;10.010;2024-01-27T03:19:30;6.90;99.90
5280;DHT22;2663;53.588;10.010;2024-01-27T03:21:57;7.00;99.90
5280;DHT22;2663;53.588;10.010;2024-01-27T03:24:24;7.10;99.90
5280;DHT22;2663;53.588;10.010;2024-01-27T03:26:51;6.90;99.90
5280;DHT22;2663;53.588;10.010;2024-01-27T03:29:18;6.90;99.90
5280;DHT22;2663;53.588;10.010;2024-01-27T03:31:45;6.90;99.90
5280;DHT22;2663;53.588;10.010;2024-01-27T03:34:11;6.90;99.90
5280;DHT22;2663;53.588;10.010;2024-01-27T03:36:38;6.90;99.90
5280;DHT22;2663;53.588;10.010;2024-01-27T03:39:05;6.80;99.90
5280;DHT22;2663;53.588;10.010;2024-01-27T03:41:33;6.80;99.90
5280;DHT22;2663;53.588;10.010;2024-01-27T03:44:01;6.80;99.90
5280;DHT22;2663;53.588;10.010;2024-01-27T03:46:27;6.70;99.90
5280;DHT22;2663;53.588;10.010;2024-01-27T03:48:54;6.80;99.90
5280;DHT22;2663;53.588;10.010;2024-01-27T03:51:21;6.80;99.90
5280;DHT22;2663;53.588;10.010;2024-01-27T03:53:49;6.80;99.90
5280;DHT22;2663;53.588;10.010;2024-01-27T03:56:15;6.80;99.90
5280;DHT22;2663;53.588;10.010;2024-01-27T03:58:42;6.70;99.90
5280;DHT22;2663;53.588;10.010;2024-01-27T04:01:09;6.80;99.90
5280;DHT22;2663;53.588;10.010;2024-01-27T04:03:36;6.70;99.90
5280;DHT22;2663;53.588;10.010;2024-01-27T04:06:03;6.70;99.90
5280;DHT22;2663;53.588;10.010;2024-01-27T04:08:33;6.80;99.90
5280;DHT22;2663;53.588;10.010;2024-01-27T04:10:59;6.80;99.90
5280;DHT22;2663;53.588;10.010;2024-01-27T04:13:26;6.80;99.90
5280;DHT22;2663;53.588;10.010;2024-01-27T04:15:53;6.70;99.90
5280;DHT22;2663;53.588;10.010;2024-01-27T04:18:20;6.70;99.90
5280;DHT22;2663;53.588;10.010;2024-01-27T04:20:47;6.80;99.90
5280;DHT22;2663;53.588;10.010;2024-01-27T04:23:15;6.70;99.90
5280;DHT22;2663;53.588;10.010;2024-01-27T04:25:43;6.60;99.90
5280;DHT22;2663;53.588;10.010;2024-01-27T04:28:10;6.60;99.90
5280;DHT22;2663;53.588;10.010;2024-01-27T04:30:39;6.60;99.90
5280;DHT22;2663;53.588;10.010;2024-01-27T04:33:06;6.60;99.90
5280;DHT22;2663;53.588;10.010;2024-01-27T04:35:34;6.50;99.90
5280;DHT22;2663;53.588;10.010;2024-01-27T04:38:01;6.50;99.90
5280;DHT22;2663;53.588;10.010;2024-01-27T04:40:28;6.50;99.90
5280;DHT22;2663;53.588;10.010;2024-01-27T04:42:55;6.60;99.90
5280;DHT22;2663;53.588;10.010;2024-01-27T04:45:22;6.60;99.90
5280;DHT22;2663;53.588;10.010;2024-01-27T04:47:49;6.60;99.90
5280;DHT22;2663;53.588;10.010;2024-01-27T04:50:15;6.70;99.90
5280;DHT22;2663;53.588;10.010;2024-01-27T04:52:42;6.60;99.90
5280;DHT22;2663;53.588;10.010;2024-01-27T04:55:09;6.60;99.90
5280;DHT22;2663;53.588;10.010;2024-01-27T04:57:35;6.50;99.90
5280;DHT22;2663;53.588;10.010;2024-01-27T05:00:03;6.50;99.90
5280;DHT22;2663;53.588;10.010;2024-01-27T05:02:33;6.60;99.90
5280;DHT22;2663;53.588;10.010;2024-01-27T05:05:01;6.60;99.90
5280;DHT22;2663;53.588;10.010;2024-01-27T05:07:29;6.60;99.90
5280;DHT22;2663;53.588;10.010;2024-01-27T05:09:56;6.50;99.90
5280;DHT22;2663;53.588;10.010;2024-01-27T05:12:23;5.50;99.90
5280;DHT22;2663;53.588;10.010;2024-01-27T05:14:50;6.40;99.90
5280;DHT22;2663;53.588;10.010;2024-01-27T05:17:17;6.30;99.90
5280;DHT22;2663;53.588;10.010;2024-01-27T05:19:43;6.20;99.90
5280;DHT22;2663;53.588;10.010;2024-01-27T05:22:10;6.20;99.90
5280;DHT22;2663;53.588;10.010;2024-01-27T05:24:37;6.20;99.90
5280;DHT22;2663;53.588;10.010;2024-01-27T05:27:04;6.20;99.90
5280;DHT22;2663;53.588;10.010;2024-01-27T05:29:31;6.20;99.90
5280;DHT22;2663;53.588;10.010;2024-01-27T05:31:58;6.20;99.90
5280;DHT22;2663;53.588;10.010;2024-01-27T05:34:24;6.20;99.90
5280;DHT22;2663;53.588;10.010;2024-01-27T05:36:51;6.00;99.90
5280;DHT22;2663;53.588;10.010;2024-01-27T05:39:18;6.00;99.90
5280;DHT22;2663;53.588;10.010;2024-01-27T05:41:45;6.00;99.90
5280;DHT22;2663;53.588;10.010;2024-01-27T05:44:12;6.00;99.90
5280;DHT22;2663;53.588;10.010;2024-01-27T05:46:39;5.90;99.90
5280;DHT22;2663;53.588;10.010;2024-01-27T05:49:06;6.00;99.90
5280;DHT22;2663;53.588;10.010;2024-01-27T05:51:33;6.10;99.90
5280;DHT22;2663;53.588;10.010;2024-01-27T05:54:00;6.10;99.90
5280;DHT22;2663;53.588;10.010;2024-01-27T05:56:27;6.00;99.90
5280;DHT22;2663;53.588;10.010;2024-01-27T05:58:53;6.00;99.90
5280;DHT22;2663;53.588;10.010;2024-01-27T06:01:20;6.00;99.90
5280;DHT22;2663;53.588;10.010;2024-01-27T06:03:47;6.00;99.90
5280;DHT22;2663;53.588;10.010;2024-01-27T06:06:14;6.10;99.90
5280;DHT22;2663;53.588;10.010;2024-01-27T06:08:41;6.10;99.90
5280;DHT22;2663;53.588;10.010;2024-01-27T06:11:08;6.00;99.90
5280;DHT22;2663;53.588;10.010;2024-01-27T06:13:36;6.00;99.90
5280;DHT22;2663;53.588;10.010;2024-01-27T06:16:08;6.00;99.90
5280;DHT22;2663;53.588;10.010;2024-01-27T06:18:38;6.00;99.90
5280;DHT22;2663;53.588;10.010;2024-01-27T06:21:06;6.00;99.90
5280;DHT22;2663;53.588;10.010;2024-01-27T06:23:33;5.90;99.90
5280;DHT22;2663;53.588;10.010;2024-01-27T06:26:07;5.90;99.90
5280;DHT22;2663;53.588;10.010;2024-01-27T06:28:34;5.90;99.90
5280;DHT22;2663;53.588;10.010;2024-01-27T06:31:05;6.80;99.90
5280;DHT22;2663;53.588;10.010;2024-01-27T06:33:32;5.80;99.90
5280;DHT22;2663;53.588;10.010;2024-01-27T06:35:59;5.80;99.90
5280;DHT22;2663;53.588;10.010;2024-01-27T06:38:27;5.80;99.90
5280;DHT22;2663;53.588;10.010;2024-01-27T06:40:54;5.80;99.90
5280;DHT22;2663;53.588;10.010;2024-01-27T06:43:21;5.70;99.90
5280;DHT22;2663;53.588;10.010;2024-01-27T06:45:47;5.70;99.90
5280;DHT22;2663;53.588;10.010;2024-01-27T06:48:14;5.60;99.90
5280;DHT22;2663;53.588;10.010;2024-01-27T06:50:41;5.70;99.90
5280;DHT22;2663;53.588;10.010;2024-01-27T06:53:08;5.70;99.90
5280;DHT22;2663;53.588;10.010;2024-01-27T06:55:36;5.60;99.90
5280;DHT22;2663;53.588;10.010;2024-01-27T06:58:08;5.60;99.90
5280;DHT22;2663;53.588;10.010;2024-01-27T07:00:34;5.60;99.90
5280;DHT22;2663;53.588;10.010;2024-01-27T07:03:01;5.60;99.90
5280;DHT22;2663;53.588;10.010;2024-01-27T07:05:29;5.50;99.90
5280;DHT22;2663;53.588;10.010;2024-01-27T07:07:56;6.30;99.90
5280;DHT22;2663;53.588;10.010;2024-01-27T07:10:23;5.60;99.90
5280;DHT22;2663;53.588;10.010;2024-01-27T07:12:49;5.50;99.90
5280;DHT22;2663;53.588;10.010;2024-01-27T07:15:16;5.40;99.90
5280;DHT22;2663;53.588;10.010;2024-01-27T07:17:43;5.40;99.90
5280;DHT22;2663;53.588;10.010;2024-01-27T07:20:10;5.40;99.90
5280;DHT22;2663;53.588;10.010;2024-01-27T07:22:37;5.30;99.90
5280;DHT22;2663;53.588;10.010;2024-01-27T07:25:04;5.30;99.90
5280;DHT22;2663;53.588;10.010;2024-01-27T07:27:31;5.30;99.90
5280;DHT22;2663;53.588;10.010;2024-01-27T07:29:58;4.90;99.90
5280;DHT22;2663;53.588;10.010;2024-01-27T07:32:24;5.40;99.90
5280;DHT22;2663;53.588;10.010;2024-01-27T07:34:52;5.30;99.90
5280;DHT22;2663;53.588;10.010;2024-01-27T07:37:19;5.20;99.90
5280;DHT22;2663;53.588;10.010;2024-01-27T07:39:47;5.20;99.90
5280;DHT22;2663;53.588;10.010;2024-01-27T07:42:15;5.20;99.90
5280;DHT22;2663;53.588;10.010;2024-01-27T07:44:42;5.20;99.90
5280;DHT22;2663;53.588;10.010;2024-01-27T07:47:09;6.40;99.90
5280;DHT22;2663;53.588;10.010;2024-01-27T07:49:36;6.30;99.90
5280;DHT22;2663;53.588;10.010;2024-01-27T07:52:03;5.70;99.90
5280;DHT22;2663;53.588;10.010;2024-01-27T07:54:29;5.50;99.90
5280;DHT22;2663;53.588;10.010;2024-01-27T07:56:58;5.30;99.90
5280;DHT22;2663;53.588;10.010;2024-01-27T07:59:25;5.50;99.90
5280;DHT22;2663;53.588;10.010;2024-01-27T08:01:52;5.40;99.90
5280;DHT22;2663;53.588;10.010;2024-01-27T08:04:19;5.50;99.90
5280;DHT22;2663;53.588;10.010;2024-01-27T08:06:47;5.50;99.90
5280;DHT22;2663;53.588;10.010;2024-01-27T08:09:14;5.40;99.90
5280;DHT22;2663;53.588;10.010;2024-01-27T08:11:41;5.50;99.90
5280;DHT22;2663;53.588;10.010;2024-01-27T08:14:09;5.50;99.90
5280;DHT22;2663;53.588;10.010;2024-01-27T08:16:35;5.40;99.90
5280;DHT22;2663;53.588;10.010;2024-01-27T08:19:02;5.50;99.90
5280;DHT22;2663;53.588;10.010;2024-01-27T08:21:29;5.50;99.90
5280;DHT22;2663;53.588;10.010;2024-01-27T08:23:56;5.60;99.90
5280;DHT22;2663;53.588;10.010;2024-01-27T08:26:23;6.60;99.90
5280;DHT22;2663;53.588;10.010;2024-01-27T08:28:50;5.50;99.90
5280;DHT22;2663;53.588;10.010;2024-01-27T08:31:17;5.70;99.90
5280;DHT22;2663;53.588;10.010;2024-01-27T08:33:43;5.60;99.90
5280;DHT22;2663;53.588;10.010;2024-01-27T08:36:14;5.70;99.90
5280;DHT22;2663;53.588;10.010;2024-01-27T08:38:41;6.00;99.90
5280;DHT22;2663;53.588;10.010;2024-01-27T08:41:08;6.00;99.90
5280;DHT22;2663;53.588;10.010;2024-01-27T08:43:35;6.00;99.90
5280;DHT22;2663;53.588;10.010;2024-01-27T08:46:01;5.90;99.90
5280;DHT22;2663;53.588;10.010;2024-01-27T08:48:29;5.80;99.90
5280;DHT22;2663;53.588;10.010;2024-01-27T08:50:56;5.80;99.90
5280;DHT22;2663;53.588;10.010;2024-01-27T08:53:23;5.60;99.90
5280;DHT22;2663;53.588;10.010;2024-01-27T08:55:49;6.40;99.90
5280;DHT22;2663;53.588;10.010;2024-01-27T08:58:16;5.60;99.90
5280;DHT22;2663;53.588;10.010;2024-01-27T09:00:42;5.80;99.90
5280;DHT22;2663;53.588;10.010;2024-01-27T09:03:09;5.90;99.90
5280;DHT22;2663;53.588;10.010;2024-01-27T09:05:36;5.70;99.90
5280;DHT22;2663;53.588;10.010;2024-01-27T09:08:03;5.80;99.90
5280;DHT22;2663;53.588;10.010;2024-01-27T09:10:30;5.80;99.90
5280;DHT22;2663;53.588;10.010;2024-01-27T09:12:57;5.80;99.90
5280;DHT22;2663;53.588;10.010;2024-01-27T09:15:24;6.10;99.90
5280;DHT22;2663;53.588;10.010;2024-01-27T09:17:50;5.80;99.90
5280;DHT22;2663;53.588;10.010;2024-01-27T09:20:18;5.90;99.90
5280;DHT22;2663;53.588;10.010;2024-01-27T09:22:45;5.90;99.90
5280;DHT22;2663;53.588;10.010;2024-01-27T09:25:13;6.00;99.90
5280;DHT22;2663;53.588;10.010;2024-01-27T09:27:41;6.10;99.90
5280;DHT22;2663;53.588;10.010;2024-01-27T09:30:08;6.20;99.90
5280;DHT22;2663;53.588;10.010;2024-01-27T09:32:35;6.20;99.90
5280;DHT22;2663;53.588;10.010;2024-01-27T09:35:02;6.20;99.90
5280;DHT22;2663;53.588;10.010;2024-01-27T09:37:29;6.00;99.90
5280;DHT22;2663;53.588;10.010;2024-01-27T09:39:57;6.10;99.90
5280;DHT22;2663;53.588;10.010;2024-01-27T09:42:23;6.10;99.90
5280;DHT22;2663;53.588;10.010;2024-01-27T09:44:52;6.10;99.90
5280;DHT22;2663;53.588;10.010;2024-01-27T09:47:20;6.20;99.90
5280;DHT22;2663;53.588;10.010;2024-01-27T09:49:48;6.30;99.90
5280;DHT22;2663;53.588;10.010;2024-01-27T09:52:15;6.30;99.90
5280;DHT22;2663;53.588;10.010;2024-01-27T09:54:42;6.40;99.90
5280;DHT22;2663;53.588;10.010;2024-01-27T09:57:09;6.40;99.90
5280;DHT22;2663;53.588;10.010;2024-01-27T09:59:40;6.40;99.90
5280;DHT22;2663;53.588;10.010;2024-01-27T10:02:11;6.40;99.90
5280;DHT22;2663;53.588;10.010;2024-01-27T10:04:41;6.40;99.90
5280;DHT22;2663;53.588;10.010;2024-01-27T10:07:08;6.40;99.90
5280;DHT22;2663;53.588;10.010;2024-01-27T10:09:35;6.40;99.90
5280;DHT22;2663;53.588;10.010;2024-01-27T10:12:02;6.50;99.90
5280;DHT22;2663;53.588;10.010;2024-01-27T10:14:42;6.60;99.90
5280;DHT22;2663;53.588;10.010;2024-01-27T10:17:11;6.50;99.90
5280;DHT22;2663;53.588;10.010;2024-01-27T10:19:38;6.60;99.90
5280;DHT22;2663;53.588;10.010;2024-01-27T10:22:10;6.70;99.90
5280;DHT22;2663;53.588;10.010;2024-01-27T10:24:37;6.80;99.90
5280;DHT22;2663;53.588;10.010;2024-01-27T10:27:04;6.90;99.90
5280;DHT22;2663;53.588;10.010;2024-01-27T10:29:31;6.80;99.90
5280;DHT22;2663;53.588;10.010;2024-01-27T10:32:09;6.10;99.90
5280;DHT22;2663;53.588;10.010;2024-01-27T10:34:36;6.80;99.90
5280;DHT22;2663;53.588;10.010;2024-01-27T10:37:03;6.80;99.90
5280;DHT22;2663;53.588;10.010;2024-01-27T10:39:30;7.30;99.90
5280;DHT22;2663;53.588;10.010;2024-01-27T10:42:02;6.90;99.90
5280;DHT22;2663;53.588;10.010;2024-01-27T10:44:29;6.90;99.90
5280;DHT22;2663;53.588;10.010;2024-01-27T10:46:56;8.10;99.90
5280;DHT22;2663;53.588;10.010;2024-01-27T10:49:28;7.00;99.90
5280;DHT22;2663;53.588;10.010;2024-01-27T10:51:59;7.00;99.90
5280;DHT22;2663;53.588;10.010;2024-01-27T10:54:28;7.00;99.90
5280;DHT22;2663;53.588;10.010;2024-01-27T10:56:57;7.00;99.90
5280;DHT22;2663;53.588;10.010;2024-01-27T10:59:30;7.00;99.90
5280;DHT22;2663;53.588;10.010;2024-01-27T11:01:58;7.20;99.90
5280;DHT22;2663;53.588;10.010;2024-01-27T11:04:26;7.20;99.90
5280;DHT22;2663;53.588;10.010;2024-01-27T11:06:55;7.20;99.90
5280;DHT22;2663;53.588;10.010;2024-01-27T11:09:24;7.20;99.90
5280;DHT22;2663;53.588;10.010;2024-01-27T11:11:51;8.20;99.90
5280;DHT22;2663;53.588;10.010;2024-01-27T11:14:19;7.30;99.90
5280;DHT22;2663;53.588;10.010;2024-01-27T11:16:45;7.40;99.90
5280;DHT22;2663;53.588;10.010;2024-01-27T11:19:17;7.50;99.90
5280;DHT22;2663;53.588;10.010;2024-01-27T11:21:45;7.60;99.90
5280;DHT22;2663;53.588;10.010;2024-01-27T11:24:15;7.70;99.90
5280;DHT22;2663;53.588;10.010;2024-01-27T11:26:43;7.70;99.90
5280;DHT22;2663;53.588;10.010;2024-01-27T11:29:10;7.70;99.90
5280;DHT22;2663;53.588;10.010;2024-01-27T11:31:46;7.70;99.90
5280;DHT22;2663;53.588;10.010;2024-01-27T11:34:13;7.70;99.90
5280;DHT22;2663;53.588;10.010;2024-01-27T11:36:43;7.60;99.90
5280;DHT22;2663;53.588;10.010;2024-01-27T11:39:29;7.70;99.90
5280;DHT22;2663;53.588;10.010;2024-01-27T11:42:07;7.80;99.90
5280;DHT22;2663;53.588;10.010;2024-01-27T11:44:38;7.70;99.90
5280;DHT22;2663;53.588;10.010;2024-01-27T11:47:05;7.70;99.90
5280;DHT22;2663;53.588;10.010;2024-01-27T11:49:40;7.80;99.90
5280;DHT22;2663;53.588;10.010;2024-01-27T11:52:11;7.80;99.90
5280;DHT22;2663;53.588;10.010;2024-01-27T11:54:37;7.90;99.90
5280;DHT22;2663;53.588;10.010;2024-01-27T11:57:04;8.00;99.90
5280;DHT22;2663;53.588;10.010;2024-01-27T11:59:33;8.10;99.90
5280;DHT22;2663;53.588;10.010;2024-01-27T12:02:02;8.40;99.90
5280;DHT22;2663;53.588;10.010;2024-01-27T12:04:29;8.10;99.90
5280;DHT22;2663;53.588;10.010;2024-01-27T12:06:56;8.10;99.90
5280;DHT22;2663;53.588;10.010;2024-01-27T12:09:23;8.20;99.90
5280;DHT22;2663;53.588;10.010;2024-01-27T12:11:50;8.20;99.90
5280;DHT22;2663;53.588;10.010;2024-01-27T12:14:17;8.30;99.90
5280;DHT22;2663;53.588;10.010;2024-01-27T12:16:44;8.30;99.90
5280;DHT22;2663;53.588;10.010;2024-01-27T12:19:11;8.30;99.90
5280;DHT22;2663;53.588;10.010;2024-01-27T12:21:38;8.30;99.90
5280;DHT22;2663;53.588;10.010;2024-01-27T12:24:05;8.30;99.90
5280;DHT22;2663;53.588;10.010;2024-01-27T12:26:44;8.30;99.90
5280;DHT22;2663;53.588;10.010;2024-01-27T12:29:11;8.40;99.90
5280;DHT22;2663;53.588;10.010;2024-01-27T12:31:38;8.40;99.90
5280;DHT22;2663;53.588;10.010;2024-01-27T12:34:05;8.50;99.90
5280;DHT22;2663;53.588;10.010;2024-01-27T12:36:34;8.60;99.90
5280;DHT22;2663;53.588;10.010;2024-01-27T12:39:02;8.50;99.90
5280;DHT22;2663;53.588;10.010;2024-01-27T12:41:32;8.20;99.90
5280;DHT22;2663;53.588;10.010;2024-01-27T12:44:01;8.60;99.90
5280;DHT22;2663;53.588;10.010;2024-01-27T12:46:29;8.70;99.90
5280;DHT22;2663;53.588;10.010;2024-01-27T12:48:56;8.80;99.90
5280;DHT22;2663;53.588;10.010;2024-01-27T12:51:23;9.50;99.90
5280;DHT22;2663;53.588;10.010;2024-01-27T12:53:51;8.60;99.90
5280;DHT22;2663;53.588;10.010;2024-01-27T12:56:18;8.60;99.90
5280;DHT22;2663;53.588;10.010;2024-01-27T12:58:45;8.70;99.90
5280;DHT22;2663;53.588;10.010;2024-01-27T13:01:12;8.60;99.90
5280;DHT22;2663;53.588;10.010;2024-01-27T13:03:39;8.50;99.90
5280;DHT22;2663;53.588;10.010;2024-01-27T13:06:11;8.60;99.90
5280;DHT22;2663;53.588;10.010;2024-01-27T13:08:38;8.50;99.90
5280;DHT22;2663;53.588;10.010;2024-01-27T13:11:05;8.60;99.90
5280;DHT22;2663;53.588;10.010;2024-01-27T13:13:31;8.60;99.90
5280;DHT22;2663;53.588;10.010;2024-01-27T13:15:58;8.60;99.90
5280;DHT22;2663;53.588;10.010;2024-01-27T13:18:25;8.50;99.90
5280;DHT22;2663;53.588;10.010;2024-01-27T13:20:52;8.50;99.90
5280;DHT22;2663;53.588;10.010;2024-01-27T13:23:19;8.60;99.90
5280;DHT22;2663;53.588;10.010;2024-01-27T13:25:45;8.60;99.90
5280;DHT22;2663;53.588;10.010;2024-01-27T13:28:32;8.60;99.90
5280;DHT22;2663;53.588;10.010;2024-01-27T13:30:59;8.60;99.90
5280;DHT22;2663;53.588;10.010;2024-01-27T13:33:26;8.60;99.90
5280;DHT22;2663;53.588;10.010;2024-01-27T13:35:55;8.60;99.90
5280;DHT22;2663;53.588;10.010;2024-01-27T13:38:22;8.60;99.90
5280;DHT22;2663;53.588;10.010;2024-01-27T13:40:50;8.60;99.90
5280;DHT22;2663;53.588;10.010;2024-01-27T13:43:17;8.50;99.90
5280;DHT22;2663;53.588;10.010;2024-01-27T13:45:44;8.50;99.90
5280;DHT22;2663;53.588;10.010;2024-01-27T13:48:11;8.50;99.90
5280;DHT22;2663;53.588;10.010;2024-01-27T13:50:38;8.60;99.90
5280;DHT22;2663;53.588;10.010;2024-01-27T13:53:05;8.60;99.90
5280;DHT22;2663;53.588;10.010;2024-01-27T13:55:32;8.60;99.90
5280;DHT22;2663;53.588;10.010;2024-01-27T13:57:59;8.50;99.90
5280;DHT22;2663;53.588;10.010;2024-01-27T14:00:26;8.40;99.90
5280;DHT22;2663;53.588;10.010;2024-01-27T14:02:53;8.50;99.90
5280;DHT22;2663;53.588;10.010;2024-01-27T14:05:20;8.40;99.90
5280;DHT22;2663;53.588;10.010;2024-01-27T14:07:46;7.60;99.90
5280;DHT22;2663;53.588;10.010;2024-01-27T14:10:14;8.40;99.90
5280;DHT22;2663;53.588;10.010;2024-01-27T14:12:41;8.40;99.90
5280;DHT22;2663;53.588;10.010;2024-01-27T14:15:08;8.40;99.90
5280;DHT22;2663;53.588;10.010;2024-01-27T14:17:36;8.50;99.90
5280;DHT22;2663;53.588;10.010;2024-01-27T14:20:03;8.50;99.90
5280;DHT22;2663;53.588;10.010;2024-01-27T14:22:31;8.40;99.90
5280;DHT22;2663;53.588;10.010;2024-01-27T14:24:57;8.50;99.90
5280;DHT22;2663;53.588;10.010;2024-01-27T14:27:24;8.60;99.90
5280;DHT22;2663;53.588;10.010;2024-01-27T14:29:54;8.50;99.90
5280;DHT22;2663;53.588;10.010;2024-01-27T14:32:22;8.50;99.90
5280;DHT22;2663;53.588;10.010;2024-01-27T14:34:49;8.50;99.90
5280;DHT22;2663;53.588;10.010;2024-01-27T14:37:16;8.40;99.90
5280;DHT22;2663;53.588;10.010;2024-01-27T14:39:44;8.40;99.90
5280;DHT22;2663;53.588;10.010;2024-01-27T14:42:12;8.40;99.90
5280;DHT22;2663;53.588;10.010;2024-01-27T14:44:40;8.40;99.90
5280;DHT22;2663;53.588;10.010;2024-01-27T14:47:08;8.40;99.90
5280;DHT22;2663;53.588;10.010;2024-01-27T14:49:35;8.40;99.90
5280;DHT22;2663;53.588;10.010;2024-01-27T14:52:06;8.50;99.90
5280;DHT22;2663;53.588;10.010;2024-01-27T14:54:34;8.40;99.90
5280;DHT22;2663;53.588;10.010;2024-01-27T14:57:05;8.40;99.90
5280;DHT22;2663;53.588;10.010;2024-01-27T14:59:33;8.40;99.90
5280;DHT22;2663;53.588;10.010;2024-01-27T15:02:00;8.40;99.90
5280;DHT22;2663;53.588;10.010;2024-01-27T15:04:26;8.40;99.90
5280;DHT22;2663;53.588;10.010;2024-01-27T15:06:54;8.40;99.90
5280;DHT22;2663;53.588;10.010;2024-01-27T15:09:21;8.30;99.90
5280;DHT22;2663;53.588;10.010;2024-01-27T15:11:49;8.30;99.90
5280;DHT22;2663;53.588;10.010;2024-01-27T15:14:16;8.30;99.90
5280;DHT22;2663;53.588;10.010;2024-01-27T15:16:45;8.20;99.90
5280;DHT22;2663;53.588;10.010;2024-01-27T15:19:12;8.30;99.90
5280;DHT22;2663;53.588;10.010;2024-01-27T15:21:39;8.30;99.90
5280;DHT22;2663;53.588;10.010;2024-01-27T15:24:06;8.30;99.90
5280;DHT22;2663;53.588;10.010;2024-01-27T15:26:33;8.30;99.90
5280;DHT22;2663;53.588;10.010;2024-01-27T15:29:00;8.20;99.90
5280;DHT22;2663;53.588;10.010;2024-01-27T15:31:27;8.30;99.90
5280;DHT22;2663;53.588;10.010;2024-01-27T15:33:54;8.20;99.90
5280;DHT22;2663;53.588;10.010;2024-01-27T15:36:21;8.20;99.90
5280;DHT22;2663;53.588;10.010;2024-01-27T15:38:48;8.20;99.90
5280;DHT22;2663;53.588;10.010;2024-01-27T15:41:15;8.20;99.90
5280;DHT22;2663;53.588;10.010;2024-01-27T15:43:45;8.20;99.90
5280;DHT22;2663;53.588;10.010;2024-01-27T15:46:14;8.20;99.90
5280;DHT22;2663;53.588;10.010;2024-01-27T15:48:41;8.10;99.90
5280;DHT22;2663;53.588;10.010;2024-01-27T15:51:08;8.20;99.90
5280;DHT22;2663;53.588;10.010;2024-01-27T15:53:35;8.20;99.90
5280;DHT22;2663;53.588;10.010;2024-01-27T15:56:02;8.20;99.90
5280;DHT22;2663;53.588;10.010;2024-01-27T15:58:29;8.20;99.90
5280;DHT22;2663;53.588;10.010;2024-01-27T16:00:56;8.10;99.90
5280;DHT22;2663;53.588;10.010;2024-01-27T16:03:23;8.10;99.90